LTBL/IGI METAR and TAF weather

Enter ICAO airport designator
Station Type Date Time Source
LTBL METAR 2021/01/20 18:50 UTC NOAA

LTBL 201850Z 12003KT 030V170 CAVOK 02/M04 Q1029 NOSIG RMK RWY17 VRB02KT


Station Type Date Time Source
LTBL Decoded METAR 2021/01/20 18:50 UTC NOAA

Izmir / Cigli, Turkey (LTBL) 38-30N 027-01E 5M
Jan 20, 2021 - 01:50 PM EST / 2021.01.20 1850 UTC
Wind: from the ESE (120 degrees) at 3 MPH (3 KT) (direction variable):0
Visibility: greater than 7 mile(s):0
Temperature: 35 F (2 C)
Dew Point: 24 F (-4 C)
Relative Humidity: 64%
Pressure (altimeter): 30.39 in. Hg (1029 hPa)
ob: LTBL 201850Z 12003KT 030V170 CAVOK 02/M04 Q1029 NOSIG RMK RWY17 VRB02KT
cycle: 19

Station Type Date Time Source
LTBL TAF UTC NOAA

Error!

Example: see airport list